Mario Álvarez

Olheiro - Racing Club
3 Dez 2028
Domingo
Processo

Personalidade

Adaptabilidade (13) Ambição (11) Controvérsia (6) Lealdade (9) Pressão (3) Profissionalismo (11) Espírito Esportivo (15) Temperamento (1)

Perfil

Estilo de Treinamento Democrático
Licença Continental C
Determinação 11
Gestão de Pessoas 12
Motivação 6
Disciplina 5
Satisfação no Trabalho
100%
Fadiga
0%
Função Olheiro
Salário 38.2K p/s
Contrato 14.03.2030

Desempenho

Comportamento Bom
Eficácia do Treinamento
60%
Desenvolvimento do Jogador
75%
Prevenção de Lesões
65%
Implementação Tática
65%

Eventos Recentes

Participou de uma reunião de recrutamento agora
Recomendou um alvo de transferência agora
Recomendou um alvo de transferência agora
Recomendou um alvo de transferência agora
Recomendou um alvo de transferência agora
Recomendou um alvo de transferência agora
Avaliou um jogador agora
Recomendou um alvo de transferência 7d atrás

Monitorando agora

69
Jogador Clube Status Habilidade Confiança Observado Última observação Último voto
Ignacio Ovando Rosario Central Relatório pronto 107 / 116 90% 1 02.12.2028 -
Gonzalo Errecalde Gimnasia La Plata Negociando 119 / 122 90% 1 01.12.2028 -
Alejandro Garnacho Hull City Ativo 159 / 166 40% 1 01.12.2028 -
Tobías Leiva Estudiantes Ativo 120 / 123 40% 1 01.12.2028 -
Matías Rosales Sarmiento Ativo 120 / 111 40% 1 01.12.2028 -
Abdoul Ouattara Port Vale Ativo 144 / 150 40% 1 30.11.2028 -
Álex Valle Boca Juniors Ativo 142 / 151 40% 1 30.11.2028 -
Iliman N'Diaye Everton Ativo 167 / 150 40% 1 30.11.2028 -
Cristian Bordacahar Chacarita Juniors Ativo 112 / 112 42% 1 / 1m 06.09.2028 -
Nahuel Arias San Lorenzo Ativo 118 / 117 86% 1 26.06.2028 Aprovar
Welington Southampton Ativo 143 / 129 40% 1 02.06.2028 -
Bafodé Diakité Plymouth Argyle Ativo 148 / 132 40% 1 02.06.2028 -
Boubacar Kamara Aston Villa Ativo 171 / 162 40% 1 02.06.2028 -
Moisés Caicedo Chelsea Ativo 171 / 158 40% 1 31.05.2028 -
Mason Mount Manchester United Ativo 155 / 146 40% 1 31.05.2028 -
Alex Verón Vélez Ativo 115 / 118 83% 1 20.12.2027 Aprovar
Walter Bou Lanús Ativo 124 / 120 83% 1 13.12.2027 Aprovar
Sol Brynn Bradford City Ativo 130 / 123 40% 1 30.11.2027 -
Mile Svilar AS Roma Ativo 173 / 155 40% 1 30.11.2027 -
Sebastián Jaurena San Martín SJ Ativo 117 / 113 83% 1 21.06.2027 Aprovar
Juan Manuel Villalba Tigre Ativo 109 / 116 79% 1 28.12.2026 Aprovar
Shea Charles Southampton Ativo 140 / 122 40% 2 28.11.2026 -
Che Adams Torino Ativo 132 / 151 40% 2 28.11.2026 -
André-Franck Zambo Anguissa Napoli Ativo 167 / 151 40% 3 28.11.2026 -
Japhet Tanganga Sheffield United Ativo 125 / 120 40% 2 26.11.2026 -
Ibrahim Sangaré Nottingham Forest Ativo 154 / 133 40% 1 26.11.2026 -
Zack Steffen Colorado Rapids Ativo 131 / 120 40% 4 21.11.2026 -
Alexander Nübel Besiktas Ativo 146 / 134 40% 3 18.11.2026 -
Dean Henderson Crystal Palace Ativo 154 / 153 40% 2 18.11.2026 -
Jacob Greaves Ipswich Town Ativo 139 / 143 40% 1 13.11.2026 -
Valentín Gómez Betis Ativo 145 / 135 40% 2 12.11.2026 -
Leon Goretzka Aston Villa Ativo 154 / 166 40% 1 11.11.2026 -
Florentino Luís Ipswich Town Ativo 144 / 133 40% 1 11.11.2026 -
Ollie Watkins Al-Hilal Ativo 145 / 151 40% 5 10.11.2026 -
Gedson Fernandes Spartak Moscow Ativo 135 / 129 40% 1 08.11.2026 -
Hidemasa Morita Hull City Ativo 149 / 154 40% 1 04.11.2026 -
Dara O'Shea Ipswich Town Ativo 138 / 126 40% 1 03.11.2026 -
Mattéo Guendouzi Fenerbahce Ativo 145 / 141 40% 1 03.11.2026 -
Ismaël Bennacer Boca Juniors Ativo 148 / 138 40% 3 31.10.2026 -
James Justin Leeds United Ativo 140 / 134 40% 1 31.10.2026 -
Nikita Haikin Bodo/Glimt Ativo 135 / 126 40% 3 28.10.2026 -
Zion Suzuki Aston Villa Ativo 135 / 146 40% 1 28.10.2026 -
Kyle Walker-Peters West Ham United Ativo 132 / 141 40% 2 27.10.2026 -
André Wolverhampton Ativo 137 / 138 40% 1 27.10.2026 -
Dwight McNeil Crystal Palace Ativo 131 / 130 40% 2 21.10.2026 -
James Trafford Leeds United Ativo 140 / 144 40% 1 20.10.2026 -
Joachim Andersen Fulham Ativo 140 / 146 40% 1 16.10.2026 -
Joseph Leclercq Tottenham Ativo 151 / 143 40% 1 16.10.2026 -
Robin Roefs Sunderland Ativo 149 / 143 40% 1 16.10.2026 -
Dmytro Riznyk Racing Genk Ativo 144 / 129 40% 2 07.10.2026 -
Wendel Zenit Ativo 143 / 156 40% 2 05.10.2026 -
Tomoki Hayakawa Kashima Antlers Ativo 138 / 137 40% 2 29.09.2026 -
Lucas Torreira Galatasaray Ativo 156 / 160 40% 1 28.09.2026 -
Teboho Mokoena Mamelodi Sundowns Ativo 128 / 138 40% 1 28.09.2026 -
Davinson Sánchez Galatasaray Ativo 157 / 153 40% 1 27.09.2026 -
Ramón Juárez Club America Ativo 129 / 128 40% 2 25.09.2026 -
Sergi Cardona KAA Gent Ativo 148 / 158 40% 1 22.09.2026 -
Mateusz Kochalski Red Bull Salzburg Ativo 130 / 118 40% 1 17.09.2026 -
Richard Ledezma Guadalajara Ativo 135 / 126 40% 1 15.09.2026 -
Edu Expósito Espanyol Ativo 144 / 128 40% 1 11.09.2026 -
Jesús Angulo Tigres Ativo 134 / 144 40% 1 11.09.2026 -
Rubén Blanco Yokohama F. Marinos Ativo 138 / 117 40% 1 10.09.2026 -
Leo Ceara Kashima Antlers Ativo 135 / 131 40% 2 08.09.2026 -
Kevin Álvarez Club America Ativo 136 / 135 40% 1 07.09.2026 -
Thomas Strakosha AEK Ativo 125 / 131 40% 1 01.09.2026 -
Uğurcan Çakır Galatasaray Ativo 130 / 145 40% 2 22.08.2026 -
Steven Bergwijn Al-Ittihad Ativo 153 / 157 40% 3 14.08.2026 -
Ricardo Horta Braga Ativo 148 / 136 40% 1 14.08.2026 -
Dodi Lukébakio Benfica Ativo 145 / 156 40% 1 14.08.2026 -